Time;durP1;ratioP1;P1;durP2;ratioP2;P2;SDS_P1;SDS_P2;PMS_P1;PMS_P2;Temp;Humidity;BMP_temperature;BMP_pressure;BME280_temperature;BME280_humidity;BME280_pressure;Samples;Min_cycle;Max_cycle;Signal;HPM_P1;HPM_P2
2022/08/09 00:09:18;;;;;;;1.52;1.30;;;;;;;15.84;79.49;98169.03;18301667;32;20059;-61
2022/08/09 00:19:22;;;;;;;1.63;1.43;;;;;;;15.67;80.24;98167.56;18287535;32;20110;-62
2022/08/09 00:29:28;;;;;;;2.78;1.87;;;;;;;15.48;80.53;98156.63;18300692;32;20335;-61
2022/08/09 00:39:51;;;;;;;2.00;1.80;;;;;;;15.31;81.48;98157.09;18300144;32;20114;-61
2022/08/09 00:50:14;;;;;;;1.90;1.50;;;;;;;15.12;81.49;98159.75;18298912;32;20061;-61
2022/08/09 01:00:17;;;;;;;2.10;1.70;;;;;;;14.93;82.25;98165.09;18284830;32;20415;-61
2022/08/09 01:10:47;;;;;;;2.23;1.90;;;;;;;14.78;82.55;98154.34;18298550;32;20062;-61
2022/08/09 01:20:58;;;;;;;2.57;1.67;;;;;;;14.66;82.55;98162.88;18297972;32;20062;-61
2022/08/09 01:31:04;;;;;;;2.20;1.90;;;;;;;14.49;83.34;98164.06;18297672;32;20442;-62
2022/08/09 01:41:12;;;;;;;2.23;1.90;;;;;;;14.38;83.72;98170.66;18297058;32;20089;-62
2022/08/09 01:51:18;;;;;;;2.30;1.50;;;;;;;14.28;84.31;98168.00;18296210;32;20042;-61
2022/08/09 02:01:27;;;;;;;1.97;1.70;;;;;;;14.13;85.05;98161.56;18296159;32;20062;-61
2022/08/09 02:11:51;;;;;;;1.70;1.50;;;;;;;13.95;85.31;98170.38;18295605;32;20070;-62
2022/08/09 02:21:58;;;;;;;1.85;1.45;;;;;;;13.80;85.31;98174.81;18295260;32;20125;-62
2022/08/09 02:32:03;;;;;;;2.00;1.80;;;;;;;13.68;86.04;98187.91;18294905;32;20058;-62
2022/08/09 02:42:16;;;;;;;2.00;1.70;;;;;;;13.53;86.47;98196.91;18280572;32;20507;-62
2022/08/09 02:52:20;;;;;;;1.90;1.60;;;;;;;13.38;86.58;98197.75;18293820;32;20046;-62
2022/08/09 03:02:23;;;;;;;2.37;1.70;;;;;;;13.29;87.27;98196.66;18279611;32;20088;-62
2022/08/09 03:12:27;;;;;;;2.50;1.80;;;;;;;13.17;87.54;98195.06;18279737;32;20479;-62
2022/08/09 03:22:32;;;;;;;;;;;;;;;13.05;87.90;98202.66;18303330;32;20105;-62
2022/08/09 03:32:44;;;;;;;2.40;1.90;;;;;;;12.91;88.55;98196.16;18303873;32;19945;-62
2022/08/09 03:42:46;;;;;;;1.97;1.50;;;;;;;12.82;89.06;98209.47;18303340;32;20119;-64
2022/08/09 03:52:49;;;;;;;1.50;1.30;;;;;;;12.71;89.08;98204.03;18302661;32;20113;-64
2022/08/09 04:02:54;;;;;;;2.10;1.60;;;;;;;12.59;89.00;98211.59;18288858;32;20343;-64
2022/08/09 04:13:08;;;;;;;2.07;1.53;;;;;;;12.50;89.66;98219.47;18275387;32;20063;-64
2022/08/09 04:23:12;;;;;;;1.73;1.60;;;;;;;12.44;90.09;98214.31;18301139;32;20391;-64
2022/08/09 04:33:18;;;;;;;2.10;1.90;;;;;;;12.38;89.86;98213.50;18299444;32;20084;-64
2022/08/09 04:43:24;;;;;;;3.17;2.07;;;;;;;12.34;90.76;98218.63;18286123;32;20066;-64
2022/08/09 04:53:27;;;;;;;1.70;1.60;;;;;;;12.33;90.70;98227.03;18299119;32;20070;-64
2022/08/09 05:03:32;;;;;;;1.80;1.70;;;;;;;12.41;90.69;98225.69;18299116;32;20070;-64
2022/08/09 05:13:44;;;;;;;2.70;1.90;;;;;;;12.66;90.50;98243.91;18298495;32;20102;-62
2022/08/09 05:23:49;;;;;;;3.50;1.90;;;;;;;12.95;90.31;98240.66;18297849;32;20087;-62
2022/08/09 05:34:03;;;;;;;3.87;2.20;;;;;;;13.29;89.56;98257.25;18285531;32;20054;-62
2022/08/09 05:44:06;;;;;;;2.70;1.80;;;;;;;13.67;89.42;98262.34;18296540;32;20070;-62
2022/08/09 05:54:10;;;;;;;1.70;1.43;;;;;;;14.07;88.44;98253.25;18296182;32;20073;-62
2022/08/09 06:04:13;;;;;;;2.20;1.67;;;;;;;14.55;86.93;98265.50;18282683;32;20077;-62
2022/08/09 06:14:25;;;;;;;2.00;1.77;;;;;;;15.04;85.69;98280.19;18283075;32;20145;-62
2022/08/09 06:24:30;;;;;;;1.55;1.42;;;;;;;15.59;83.51;98288.16;18281094;32;20073;-62
2022/08/09 06:34:35;;;;;;;2.15;1.52;;;;;;;16.17;81.54;98281.84;18294587;32;20050;-62
2022/08/09 06:44:38;;;;;;;3.58;1.37;;;;;;;16.80;79.44;98293.56;18294083;32;20058;-62
2022/08/09 06:54:42;;;;;;;4.50;2.87;;;;;;;17.43;77.34;98305.16;18287584;32;20058;-62
2022/08/09 07:04:45;;;;;;;3.15;2.28;;;;;;;17.97;72.59;98313.00;18291146;32;20093;-62
2022/08/09 07:14:49;;;;;;;3.53;2.00;;;;;;;18.40;69.62;98312.66;18304168;32;20062;-62
2022/08/09 07:24:54;;;;;;;4.82;2.35;;;;;;;18.85;66.88;98314.72;18303878;32;20058;-62
2022/08/09 07:35:00;;;;;;;4.33;2.13;;;;;;;19.35;64.30;98322.06;18277382;32;20114;-62
2022/08/09 07:45:14;;;;;;;3.12;2.25;;;;;;;19.90;61.30;98329.22;18302849;32;20089;-62
2022/08/09 07:55:43;;;;;;;2.15;1.60;;;;;;;20.59;57.50;98325.88;18302385;32;20050;-62
2022/08/09 08:06:07;;;;;;;2.62;1.75;;;;;;;21.19;57.74;98331.00;18287768;32;20145;-62
2022/08/09 08:16:26;;;;;;;2.20;1.48;;;;;;;21.83;56.21;98333.84;18301259;32;20081;-62
2022/08/09 08:26:34;;;;;;;2.20;1.90;;;;;;;22.43;54.88;98349.66;18300943;32;20335;-62
2022/08/09 08:37:03;;;;;;;1.80;1.70;;;;;;;23.07;51.63;98345.06;18300130;32;20084;-61
2022/08/09 08:47:21;;;;;;;3.10;1.85;;;;;;;23.43;49.92;98341.66;18299909;32;20760;-62
2022/08/09 08:57:30;;;;;;;4.00;1.95;;;;;;;23.92;49.90;98338.28;18298944;32;20051;-62
2022/08/09 09:07:37;;;;;;;3.10;2.00;;;;;;;24.27;45.57;98337.88;18285554;32;20084;-62
2022/08/09 09:17:44;;;;;;;2.08;1.45;;;;;;;24.61;45.38;98329.44;18297919;32;20082;-62
2022/08/09 09:27:58;;;;;;;3.97;1.67;;;;;;;25.02;45.44;98331.16;18298072;32;20446;-62
2022/08/09 09:38:10;;;;;;;1.80;1.50;;;;;;;25.47;44.06;98322.94;18297253;32;20129;-62
2022/08/09 09:48:35;;;;;;;5.18;2.03;;;;;;;25.92;44.82;98315.41;18286084;32;20102;-62
2022/08/09 09:58:47;;;;;;;2.55;1.58;;;;;;;26.23;41.23;98322.97;18296185;32;20079;-62
2022/08/09 10:09:04;;;;;;;2.23;1.97;;;;;;;26.64;43.21;98329.06;18296076;32;20049;-62
2022/08/09 10:19:36;;;;;;;3.77;1.90;;;;;;;26.87;39.62;98322.84;18295098;32;20057;-61
2022/08/09 10:29:42;;;;;;;1.75;1.62;;;;;;;27.28;38.79;98317.75;18294001;32;20102;-61
2022/08/09 10:40:10;;;;;;;2.20;1.50;;;;;;;27.54;36.67;98316.31;18294069;32;20410;-62
2022/08/09 11:01:31;;;;;;;2.33;1.65;;;;;;;28.17;36.26;98301.16;18293569;32;20062;-62
2022/08/09 11:11:58;;;;;;;3.20;1.70;;;;;;;28.43;36.42;98287.66;18293424;32;20392;-62
2022/08/09 11:22:09;;;;;;;1.87;1.50;;;;;;;29.12;35.76;98281.88;18292800;32;20109;-63
2022/08/09 11:32:45;;;;;;;2.00;1.20;;;;;;;29.71;30.49;98268.22;18281098;32;20101;-62
2022/08/09 11:42:53;;;;;;;2.00;1.83;;;;;;;30.13;31.25;98246.66;18301462;32;20066;-62
2022/08/09 11:53:01;;;;;;;1.90;1.15;;;;;;;30.37;34.82;98264.78;18302794;32;20058;-62
2022/08/09 12:03:27;;;;;;;4.22;1.48;;;;;;;30.81;31.10;98281.78;18302250;32;20118;-63
2022/08/09 12:13:59;;;;;;;4.12;1.60;;;;;;;31.15;33.04;98262.00;18301624;32;20094;-63
2022/08/09 12:24:20;;;;;;;1.62;1.12;;;;;;;31.58;27.49;98253.75;18276717;32;20450;-63
2022/08/09 12:34:37;;;;;;;2.25;1.12;;;;;;;31.84;29.70;98235.03;18300524;32;20502;-63
2022/08/09 12:44:43;;;;;;;1.23;1.10;;;;;;;32.29;30.59;98227.03;18287395;32;20076;-63
2022/08/09 12:54:58;;;;;;;3.62;1.20;;;;;;;32.64;28.84;98238.53;18298398;32;20076;-62
2022/08/09 13:05:47;;;;;;;2.72;1.10;;;;;;;32.92;27.43;98224.44;18298733;32;20078;-63
2022/08/09 13:16:17;;;;;;;1.45;1.02;;;;;;;33.30;26.32;98232.28;18298357;32;20101;-63
2022/08/09 13:26:37;;;;;;;;;;;;;;;33.35;26.14;98222.66;18298662;32;20497;-63
2022/08/09 13:36:43;;;;;;;2.50;1.15;;;;;;;33.53;25.45;98211.31;18283794;32;20249;-63
2022/08/09 13:46:49;;;;;;;2.22;1.10;;;;;;;34.24;28.69;98214.75;18283175;32;20066;-63
2022/08/09 13:57:13;;;;;;;3.78;1.33;;;;;;;34.41;27.90;98204.56;18295929;32;20098;-63
2022/08/09 14:07:38;;;;;;;2.70;1.42;;;;;;;34.63;24.92;98202.28;18284658;32;20065;-63
2022/08/09 14:17:51;;;;;;;1.58;1.00;;;;;;;34.90;26.14;98204.41;18282284;32;20079;-62
2022/08/09 14:28:19;;;;;;;3.47;1.30;;;;;;;35.08;25.27;98188.13;18295091;32;20058;-63
2022/08/09 14:38:31;;;;;;;1.42;1.23;;;;;;;35.08;22.64;98192.94;18294764;32;20082;-63
2022/08/09 14:48:37;;;;;;;2.65;1.17;;;;;;;35.24;21.24;98179.03;18294475;32;20062;-63
2022/08/09 14:58:48;;;;;;;2.72;1.42;;;;;;;35.25;21.56;98177.81;18293455;32;20069;-63
2022/08/09 15:08:59;;;;;;;1.42;1.25;;;;;;;34.75;22.97;98179.28;18293540;32;20081;-63
2022/08/09 15:19:05;;;;;;;1.65;1.23;;;;;;;33.49;26.39;98176.91;18305149;32;20047;-63
2022/08/09 15:29:20;;;;;;;2.15;1.30;;;;;;;32.24;25.91;98163.06;18289712;32;20509;-63
2022/08/09 15:39:45;;;;;;;1.37;1.20;;;;;;;31.47;28.33;98163.50;18303405;32;20074;-63
2022/08/09 15:49:57;;;;;;;1.45;1.35;;;;;;;30.84;28.46;98152.59;18290037;32;20062;-63
2022/08/09 16:00:10;;;;;;;1.73;1.10;;;;;;;30.69;28.24;98141.37;18302045;32;20382;-63
2022/08/09 16:10:15;;;;;;;1.90;1.12;;;;;;;30.14;28.79;98136.72;18288000;32;20081;-63
2022/08/09 16:20:39;;;;;;;1.92;1.40;;;;;;;29.89;29.60;98129.00;18290574;32;20066;-62
2022/08/09 16:30:44;;;;;;;1.85;1.30;;;;;;;29.54;29.65;98124.72;18275469;32;20392;-62
2022/08/09 16:41:01;;;;;;;1.15;1.00;;;;;;;29.51;29.85;98127.50;18286251;32;20081;-62
2022/08/09 16:51:05;;;;;;;2.95;1.40;;;;;;;29.12;30.20;98120.38;18299588;32;20112;-62
2022/08/09 17:01:15;;;;;;;3.28;1.10;;;;;;;28.95;30.57;98116.22;18299441;32;20091;-63
2022/08/09 17:11:22;;;;;;;3.45;1.02;;;;;;;28.56;31.76;98111.03;18285615;32;20080;-62
2022/08/09 17:21:43;;;;;;;3.83;1.00;;;;;;;28.25;31.74;98124.13;18298496;32;20106;-62
2022/08/09 17:31:47;;;;;;;2.55;1.40;;;;;;;28.01;31.67;98119.81;18298012;32;20411;-62
2022/08/09 17:41:52;;;;;;;3.90;1.58;;;;;;;27.75;32.78;98126.16;18296647;32;20084;-62
2022/08/09 17:52:03;;;;;;;1.90;1.55;;;;;;;27.52;34.17;98133.37;18283828;32;20081;-62
2022/08/09 18:02:07;;;;;;;1.80;1.15;;;;;;;27.22;33.25;98128.47;18282904;32;20067;-62
2022/08/09 18:12:27;;;;;;;1.50;1.30;;;;;;;26.92;33.83;98133.09;18296052;32;20061;-63
2022/08/09 18:22:42;;;;;;;2.05;1.40;;;;;;;26.58;34.05;98136.38;18270677;32;20063;-62
2022/08/09 18:32:52;;;;;;;2.03;1.10;;;;;;;26.20;35.52;98149.84;18295006;32;20054;-62
2022/08/09 18:42:56;;;;;;;1.30;0.90;;;;;;;25.92;35.26;98149.19;18294404;32;20059;-63
2022/08/09 18:53:01;;;;;;;3.47;1.33;;;;;;;25.58;36.36;98155.09;18290150;32;20054;-63
2022/08/09 19:03:14;;;;;;;1.12;1.02;;;;;;;25.48;36.14;98158.44;18305373;32;20054;-63
2022/08/09 19:13:18;;;;;;;3.67;1.23;;;;;;;25.07;38.47;98177.91;18290973;32;20058;-63
2022/08/09 19:23:40;;;;;;;;;;;;;;;24.67;39.32;98176.03;18304396;32;20062;-63
2022/08/09 19:34:04;;;;;;;1.42;0.90;;;;;;;24.39;39.70;98181.47;18292816;32;20247;-62
2022/08/09 19:44:20;;;;;;;1.80;1.20;;;;;;;24.45;38.24;98191.94;18290758;32;20062;-63
2022/08/09 19:54:25;;;;;;;2.67;1.10;;;;;;;24.11;39.71;98198.81;18302306;32;20050;-62
2022/08/09 20:04:30;;;;;;;3.08;1.25;;;;;;;23.78;40.34;98203.28;18287819;32;20074;-62
2022/08/09 20:14:42;;;;;;;1.27;0.90;;;;;;;23.44;41.26;98210.03;18301891;32;20379;-62
2022/08/09 20:24:53;;;;;;;1.77;1.40;;;;;;;23.15;42.77;98214.56;18286990;32;20059;-62
2022/08/09 20:34:57;;;;;;;1.50;0.90;;;;;;;22.79;43.45;98224.25;18286873;32;20084;-62
2022/08/09 20:45:00;;;;;;;1.60;1.00;;;;;;;22.30;45.88;98231.06;18300542;32;20084;-62
2022/08/09 20:55:23;;;;;;;1.65;1.20;;;;;;;21.84;47.95;98235.53;18288386;32;20050;-63
2022/08/09 21:05:28;;;;;;;4.18;1.17;;;;;;;21.54;48.85;98232.72;18285560;32;20101;-62
2022/08/09 21:15:53;;;;;;;2.47;1.30;;;;;;;21.38;50.02;98234.38;18297870;32;20469;-63
2022/08/09 21:26:02;;;;;;;2.50;1.00;;;;;;;21.15;50.74;98220.84;18298124;32;20108;-63
2022/08/09 21:36:05;;;;;;;1.40;1.10;;;;;;;20.91;51.46;98216.69;18284111;32;20062;-62
2022/08/09 21:46:12;;;;;;;2.35;1.42;;;;;;;20.75;52.36;98219.09;18283483;32;20363;-62
2022/08/09 21:56:15;;;;;;;2.90;1.37;;;;;;;20.50;53.81;98204.22;18270227;32;20380;-62
2022/08/09 22:06:38;;;;;;;2.37;1.12;;;;;;;20.24;54.41;98209.66;18284854;32;20088;-63
2022/08/09 22:16:43;;;;;;;1.58;1.02;;;;;;;19.92;54.97;98214.44;18295726;32;20370;-62
2022/08/09 22:26:45;;;;;;;1.43;1.13;;;;;;;19.60;55.86;98208.16;18295116;32;20051;-63
2022/08/09 22:36:54;;;;;;;1.67;1.17;;;;;;;19.28;56.57;98207.34;18295125;32;20113;-62
2022/08/09 22:46:57;;;;;;;1.83;1.52;;;;;;;18.96;59.21;98212.81;18294620;32;20109;-62
2022/08/09 22:57:20;;;;;;;1.60;1.25;;;;;;;18.67;60.03;98209.69;18294032;32;20073;-62
2022/08/09 23:18:08;;;;;;;2.78;1.70;;;;;;;18.14;61.51;98191.97;18293505;32;20066;-62
2022/08/09 23:28:10;;;;;;;3.05;1.60;;;;;;;17.90;62.13;98191.06;18293011;32;20449;-62
2022/08/09 23:38:18;;;;;;;1.98;1.37;;;;;;;17.70;63.05;98194.19;18301487;32;20106;-62
2022/08/09 23:48:20;;;;;;;;;;;;;;;17.51;63.89;98183.34;18303451;32;20062;-62
2022/08/09 23:58:23;;;;;;;1.75;1.40;;;;;;;17.29;64.60;98187.59;18238096;32;19983;-62
